sensor_id;sensor_type;location;lat;lon;timestamp;pressure;altitude;pressure_sealevel;temperature;humidity
24746;BME280;12845;52.042;6.838;2023-02-13T00:00:52;-18187.25;;;5.92;100.00
24746;BME280;12845;52.042;6.838;2023-02-13T00:03:17;-18186.84;;;5.90;100.00
24746;BME280;12845;52.042;6.838;2023-02-13T00:05:42;-18185.47;;;5.85;100.00
24746;BME280;12845;52.042;6.838;2023-02-13T00:08:08;-18184.66;;;5.82;100.00
24746;BME280;12845;52.042;6.838;2023-02-13T00:10:33;-18183.97;;;5.79;100.00
24746;BME280;12845;52.042;6.838;2023-02-13T00:12:59;-18183.25;;;5.77;100.00
24746;BME280;12845;52.042;6.838;2023-02-13T00:15:24;-18182.31;;;5.73;100.00
24746;BME280;12845;52.042;6.838;2023-02-13T00:17:49;-18181.19;;;5.69;100.00
24746;BME280;12845;52.042;6.838;2023-02-13T00:20:14;-18180.38;;;5.66;100.00
24746;BME280;12845;52.042;6.838;2023-02-13T00:22:40;-18179.81;;;5.64;100.00
24746;BME280;12845;52.042;6.838;2023-02-13T00:25:06;-18179.13;;;5.61;100.00
24746;BME280;12845;52.042;6.838;2023-02-13T00:27:31;-18178.56;;;5.59;100.00
24746;BME280;12845;52.042;6.838;2023-02-13T00:29:57;-18177.88;;;5.57;100.00
24746;BME280;12845;52.042;6.838;2023-02-13T00:32:22;-18177.88;;;5.57;100.00
24746;BME280;12845;52.042;6.838;2023-02-13T00:34:47;-18177.47;;;5.55;100.00
24746;BME280;12845;52.042;6.838;2023-02-13T00:37:12;-18176.91;;;5.53;100.00
24746;BME280;12845;52.042;6.838;2023-02-13T00:39:38;-18176.38;;;5.51;100.00
24746;BME280;12845;52.042;6.838;2023-02-13T00:42:03;-18175.53;;;5.48;100.00
24746;BME280;12845;52.042;6.838;2023-02-13T00:44:29;-18174.72;;;5.45;100.00
24746;BME280;12845;52.042;6.838;2023-02-13T00:46:54;-18173.88;;;5.42;100.00
24746;BME280;12845;52.042;6.838;2023-02-13T00:49:19;-18173.47;;;5.40;100.00
24746;BME280;12845;52.042;6.838;2023-02-13T00:51:44;-18172.91;;;5.38;100.00
24746;BME280;12845;52.042;6.838;2023-02-13T00:54:09;-18172.91;;;5.38;100.00
24746;BME280;12845;52.042;6.838;2023-02-13T00:56:35;-18172.63;;;5.37;100.00
24746;BME280;12845;52.042;6.838;2023-02-13T00:59:00;-18172.22;;;5.36;100.00
24746;BME280;12845;52.042;6.838;2023-02-13T01:01:25;-18172.09;;;5.35;100.00
24746;BME280;12845;52.042;6.838;2023-02-13T01:03:50;-18171.94;;;5.35;100.00
24746;BME280;12845;52.042;6.838;2023-02-13T01:06:16;-18170.72;;;5.30;100.00
24746;BME280;12845;52.042;6.838;2023-02-13T01:08:41;-18169.75;;;5.27;100.00
24746;BME280;12845;52.042;6.838;2023-02-13T01:11:06;-18169.47;;;5.26;100.00
24746;BME280;12845;52.042;6.838;2023-02-13T01:13:32;-18168.50;;;5.22;100.00
24746;BME280;12845;52.042;6.838;2023-02-13T01:15:57;-18168.38;;;5.22;100.00
24746;BME280;12845;52.042;6.838;2023-02-13T01:18:23;-18168.22;;;5.21;100.00
24746;BME280;12845;52.042;6.838;2023-02-13T01:21:02;-18167.13;;;5.17;100.00
24746;BME280;12845;52.042;6.838;2023-02-13T01:23:28;-18166.44;;;5.14;100.00
24746;BME280;12845;52.042;6.838;2023-02-13T01:25:54;-18166.72;;;5.15;100.00
24746;BME280;12845;52.042;6.838;2023-02-13T01:28:19;-18166.16;;;5.13;100.00
24746;BME280;12845;52.042;6.838;2023-02-13T01:30:44;-18165.75;;;5.12;100.00
24746;BME280;12845;52.042;6.838;2023-02-13T01:33:10;-18164.78;;;5.08;100.00
24746;BME280;12845;52.042;6.838;2023-02-13T01:35:38;-18164.91;;;5.09;100.00
24746;BME280;12845;52.042;6.838;2023-02-13T01:38:03;-18164.63;;;5.08;100.00
24746;BME280;12845;52.042;6.838;2023-02-13T01:40:29;-18164.09;;;5.06;100.00
24746;BME280;12845;52.042;6.838;2023-02-13T01:42:54;-18163.53;;;5.04;100.00
24746;BME280;12845;52.042;6.838;2023-02-13T01:45:23;-18163.41;;;5.03;100.00
24746;BME280;12845;52.042;6.838;2023-02-13T01:47:53;-18162.84;;;5.01;100.00
24746;BME280;12845;52.042;6.838;2023-02-13T01:50:24;-18162.28;;;4.99;100.00
24746;BME280;12845;52.042;6.838;2023-02-13T01:52:54;-18162.16;;;4.98;100.00
24746;BME280;12845;52.042;6.838;2023-02-13T01:55:21;-18162.44;;;5.00;100.00
24746;BME280;12845;52.042;6.838;2023-02-13T01:57:55;-18162.28;;;4.99;100.00
24746;BME280;12845;52.042;6.838;2023-02-13T02:00:22;-18161.75;;;4.97;100.00
24746;BME280;12845;52.042;6.838;2023-02-13T02:02:52;-18161.75;;;4.97;100.00
24746;BME280;12845;52.042;6.838;2023-02-13T02:05:19;-18161.19;;;4.95;100.00
24746;BME280;12845;52.042;6.838;2023-02-13T02:07:45;-18161.31;;;4.95;100.00
24746;BME280;12845;52.042;6.838;2023-02-13T02:10:13;-18161.19;;;4.95;100.00
24746;BME280;12845;52.042;6.838;2023-02-13T02:15:05;-18160.63;;;4.93;100.00
24746;BME280;12845;52.042;6.838;2023-02-13T02:17:30;-18160.50;;;4.92;100.00
24746;BME280;12845;52.042;6.838;2023-02-13T02:25:10;-18160.09;;;4.91;100.00
24746;BME280;12845;52.042;6.838;2023-02-13T02:32:55;-18160.63;;;4.93;100.00
24746;BME280;12845;52.042;6.838;2023-02-13T02:35:26;-18160.63;;;4.93;100.00
24746;BME280;12845;52.042;6.838;2023-02-13T02:42:59;-18161.03;;;4.94;100.00
24746;BME280;12845;52.042;6.838;2023-02-13T02:51:02;-18160.34;;;4.92;100.00
24746;BME280;12845;52.042;6.838;2023-02-13T03:01:20;-18161.47;;;4.96;100.00
24746;BME280;12845;52.042;6.838;2023-02-13T03:04:08;-18162.03;;;4.98;100.00
24746;BME280;12845;52.042;6.838;2023-02-13T03:06:58;-18162.28;;;4.99;100.00
24746;BME280;12845;52.042;6.838;2023-02-13T03:09:28;-18162.03;;;4.98;100.00
24746;BME280;12845;52.042;6.838;2023-02-13T03:12:16;-18162.03;;;4.98;100.00
24746;BME280;12845;52.042;6.838;2023-02-13T03:15:02;-18162.72;;;5.01;100.00
24746;BME280;12845;52.042;6.838;2023-02-13T03:17:27;-18163.41;;;5.03;100.00
24746;BME280;12845;52.042;6.838;2023-02-13T03:20:13;-18163.81;;;5.05;100.00
24746;BME280;12845;52.042;6.838;2023-02-13T03:25:32;-18164.63;;;5.08;100.00
24746;BME280;12845;52.042;6.838;2023-02-13T03:30:53;-18164.91;;;5.09;100.00
24746;BME280;12845;52.042;6.838;2023-02-13T03:35:52;-18165.06;;;5.09;100.00
24746;BME280;12845;52.042;6.838;2023-02-13T03:38:41;-18165.06;;;5.09;100.00
24746;BME280;12845;52.042;6.838;2023-02-13T03:41:13;-18165.19;;;5.10;100.00
24746;BME280;12845;52.042;6.838;2023-02-13T03:46:29;-18165.06;;;5.09;100.00
24746;BME280;12845;52.042;6.838;2023-02-13T03:48:55;-18165.19;;;5.10;100.00
24746;BME280;12845;52.042;6.838;2023-02-13T03:52:03;-18165.47;;;5.11;100.00
24746;BME280;12845;52.042;6.838;2023-02-13T03:54:32;-18165.75;;;5.12;100.00
24746;BME280;12845;52.042;6.838;2023-02-13T03:57:17;-18166.28;;;5.14;100.00
24746;BME280;12845;52.042;6.838;2023-02-13T04:00:03;-18166.44;;;5.14;100.00
24746;BME280;12845;52.042;6.838;2023-02-13T04:02:31;-18166.16;;;5.13;100.00
24746;BME280;12845;52.042;6.838;2023-02-13T04:04:59;-18166.44;;;5.14;100.00
24746;BME280;12845;52.042;6.838;2023-02-13T04:07:30;-18166.44;;;5.14;100.00
24746;BME280;12845;52.042;6.838;2023-02-13T04:09:57;-18166.72;;;5.15;100.00
24746;BME280;12845;52.042;6.838;2023-02-13T04:15:14;-18167.13;;;5.17;100.00
24746;BME280;12845;52.042;6.838;2023-02-13T04:17:44;-18166.72;;;5.15;100.00
24746;BME280;12845;52.042;6.838;2023-02-13T04:20:12;-18167.25;;;5.17;100.00
24746;BME280;12845;52.042;6.838;2023-02-13T04:22:42;-18167.13;;;5.17;100.00
24746;BME280;12845;52.042;6.838;2023-02-13T04:25:09;-18166.72;;;5.15;100.00
24746;BME280;12845;52.042;6.838;2023-02-13T04:27:34;-18166.97;;;5.16;100.00
24746;BME280;12845;52.042;6.838;2023-02-13T04:29:59;-18167.41;;;5.18;100.00
24746;BME280;12845;52.042;6.838;2023-02-13T04:32:24;-18166.97;;;5.16;100.00
24746;BME280;12845;52.042;6.838;2023-02-13T04:34:49;-18167.25;;;5.17;100.00
24746;BME280;12845;52.042;6.838;2023-02-13T04:37:15;-18167.53;;;5.18;100.00
24746;BME280;12845;52.042;6.838;2023-02-13T04:39:40;-18167.53;;;5.18;100.00
24746;BME280;12845;52.042;6.838;2023-02-13T04:42:05;-18168.22;;;5.21;100.00
24746;BME280;12845;52.042;6.838;2023-02-13T04:44:30;-18168.09;;;5.20;100.00
24746;BME280;12845;52.042;6.838;2023-02-13T04:46:56;-18168.38;;;5.22;100.00
24746;BME280;12845;52.042;6.838;2023-02-13T04:49:21;-18168.91;;;5.24;100.00
24746;BME280;12845;52.042;6.838;2023-02-13T04:51:46;-18168.91;;;5.24;100.00
24746;BME280;12845;52.042;6.838;2023-02-13T04:54:11;-18169.19;;;5.25;100.00
24746;BME280;12845;52.042;6.838;2023-02-13T04:56:36;-18169.47;;;5.26;100.00
24746;BME280;12845;52.042;6.838;2023-02-13T04:59:02;-18169.75;;;5.27;100.00
24746;BME280;12845;52.042;6.838;2023-02-13T05:01:27;-18169.75;;;5.27;100.00
24746;BME280;12845;52.042;6.838;2023-02-13T05:03:52;-18170.28;;;5.29;100.00
24746;BME280;12845;52.042;6.838;2023-02-13T05:06:17;-18170.28;;;5.29;100.00
24746;BME280;12845;52.042;6.838;2023-02-13T05:08:43;-18170.28;;;5.29;100.00
24746;BME280;12845;52.042;6.838;2023-02-13T05:11:08;-18170.44;;;5.29;100.00
24746;BME280;12845;52.042;6.838;2023-02-13T05:13:33;-18170.28;;;5.29;100.00
24746;BME280;12845;52.042;6.838;2023-02-13T05:15:58;-18170.56;;;5.30;100.00
24746;BME280;12845;52.042;6.838;2023-02-13T05:18:24;-18170.84;;;5.31;100.00
24746;BME280;12845;52.042;6.838;2023-02-13T05:20:49;-18171.53;;;5.33;100.00
24746;BME280;12845;52.042;6.838;2023-02-13T05:23:34;-18172.09;;;5.35;100.00
24746;BME280;12845;52.042;6.838;2023-02-13T05:25:59;-18172.91;;;5.38;100.00
24746;BME280;12845;52.042;6.838;2023-02-13T05:28:25;-18173.47;;;5.40;100.00
24746;BME280;12845;52.042;6.838;2023-02-13T05:31:08;-18173.47;;;5.40;100.00
24746;BME280;12845;52.042;6.838;2023-02-13T05:33:34;-18174.16;;;5.43;100.00
24746;BME280;12845;52.042;6.838;2023-02-13T05:35:59;-18174.72;;;5.45;100.00
24746;BME280;12845;52.042;6.838;2023-02-13T05:38:24;-18175.41;;;5.48;100.00
24746;BME280;12845;52.042;6.838;2023-02-13T05:40:49;-18174.84;;;5.46;100.00
24746;BME280;12845;52.042;6.838;2023-02-13T05:43:15;-18175.00;;;5.46;100.00
24746;BME280;12845;52.042;6.838;2023-02-13T05:45:40;-18175.53;;;5.48;100.00
24746;BME280;12845;52.042;6.838;2023-02-13T05:48:05;-18176.38;;;5.51;100.00
24746;BME280;12845;52.042;6.838;2023-02-13T05:50:30;-18176.50;;;5.52;100.00
24746;BME280;12845;52.042;6.838;2023-02-13T05:52:56;-18176.38;;;5.51;100.00
24746;BME280;12845;52.042;6.838;2023-02-13T05:55:21;-18176.22;;;5.51;100.00
24746;BME280;12845;52.042;6.838;2023-02-13T05:57:46;-18176.50;;;5.52;100.00
24746;BME280;12845;52.042;6.838;2023-02-13T06:00:11;-18176.63;;;5.52;100.00
24746;BME280;12845;52.042;6.838;2023-02-13T06:02:37;-18176.78;;;5.53;100.00
24746;BME280;12845;52.042;6.838;2023-02-13T06:05:02;-18177.19;;;5.54;100.00
24746;BME280;12845;52.042;6.838;2023-02-13T06:07:27;-18177.47;;;5.55;100.00
24746;BME280;12845;52.042;6.838;2023-02-13T06:09:53;-18177.47;;;5.55;100.00
24746;BME280;12845;52.042;6.838;2023-02-13T06:12:18;-18177.75;;;5.56;100.00
24746;BME280;12845;52.042;6.838;2023-02-13T06:14:43;-18177.63;;;5.56;100.00
24746;BME280;12845;52.042;6.838;2023-02-13T06:17:08;-18177.63;;;5.56;100.00
24746;BME280;12845;52.042;6.838;2023-02-13T06:19:33;-18177.88;;;5.57;100.00
24746;BME280;12845;52.042;6.838;2023-02-13T06:21:59;-18178.16;;;5.58;100.00
24746;BME280;12845;52.042;6.838;2023-02-13T06:24:24;-18178.31;;;5.58;100.00
24746;BME280;12845;52.042;6.838;2023-02-13T06:26:49;-18178.84;;;5.60;100.00
24746;BME280;12845;52.042;6.838;2023-02-13T06:29:14;-18178.84;;;5.60;100.00
24746;BME280;12845;52.042;6.838;2023-02-13T06:31:40;-18179.13;;;5.61;100.00
24746;BME280;12845;52.042;6.838;2023-02-13T06:34:05;-18179.25;;;5.62;100.00
24746;BME280;12845;52.042;6.838;2023-02-13T06:36:30;-18179.25;;;5.62;100.00
24746;BME280;12845;52.042;6.838;2023-02-13T06:38:55;-18179.69;;;5.63;100.00
24746;BME280;12845;52.042;6.838;2023-02-13T06:41:21;-18179.13;;;5.61;100.00
24746;BME280;12845;52.042;6.838;2023-02-13T06:43:46;-18179.69;;;5.63;100.00
24746;BME280;12845;52.042;6.838;2023-02-13T06:46:11;-18179.69;;;5.63;100.00
24746;BME280;12845;52.042;6.838;2023-02-13T06:48:36;-18179.53;;;5.63;100.00
24746;BME280;12845;52.042;6.838;2023-02-13T06:51:02;-18179.53;;;5.63;100.00
24746;BME280;12845;52.042;6.838;2023-02-13T06:53:27;-18179.53;;;5.63;100.00
24746;BME280;12845;52.042;6.838;2023-02-13T06:55:53;-18180.09;;;5.65;100.00
24746;BME280;12845;52.042;6.838;2023-02-13T06:58:19;-18181.06;;;5.69;100.00
24746;BME280;12845;52.042;6.838;2023-02-13T07:00:45;-18180.66;;;5.67;100.00
24746;BME280;12845;52.042;6.838;2023-02-13T07:03:10;-18180.78;;;5.68;100.00
24746;BME280;12845;52.042;6.838;2023-02-13T07:05:38;-18180.66;;;5.67;100.00
24746;BME280;12845;52.042;6.838;2023-02-13T07:08:03;-18181.47;;;5.70;100.00
24746;BME280;12845;52.042;6.838;2023-02-13T07:10:28;-18181.63;;;5.71;100.00
24746;BME280;12845;52.042;6.838;2023-02-13T07:12:53;-18182.03;;;5.72;100.00
24746;BME280;12845;52.042;6.838;2023-02-13T07:15:19;-18182.16;;;5.73;100.00
24746;BME280;12845;52.042;6.838;2023-02-13T07:17:44;-18182.31;;;5.73;100.00
24746;BME280;12845;52.042;6.838;2023-02-13T07:20:09;-18182.72;;;5.75;100.00
24746;BME280;12845;52.042;6.838;2023-02-13T07:22:34;-18183.00;;;5.76;100.00
24746;BME280;12845;52.042;6.838;2023-02-13T07:25:00;-18183.13;;;5.76;100.00
24746;BME280;12845;52.042;6.838;2023-02-13T07:27:25;-18183.53;;;5.78;100.00
24746;BME280;12845;52.042;6.838;2023-02-13T07:29:53;-18183.81;;;5.79;100.00
24746;BME280;12845;52.042;6.838;2023-02-13T07:32:18;-18184.09;;;5.80;100.00
24746;BME280;12845;52.042;6.838;2023-02-13T07:34:44;-18184.22;;;5.80;100.00
24746;BME280;12845;52.042;6.838;2023-02-13T07:37:09;-18184.66;;;5.82;100.00
24746;BME280;12845;52.042;6.838;2023-02-13T07:39:35;-18184.91;;;5.83;100.00
24746;BME280;12845;52.042;6.838;2023-02-13T07:42:02;-18185.47;;;5.85;100.00
24746;BME280;12845;52.042;6.838;2023-02-13T07:44:28;-18186.44;;;5.88;100.00
24746;BME280;12845;52.042;6.838;2023-02-13T07:46:54;-18186.72;;;5.89;100.00
24746;BME280;12845;52.042;6.838;2023-02-13T07:49:19;-18187.00;;;5.91;100.00
24746;BME280;12845;52.042;6.838;2023-02-13T07:51:44;-18187.00;;;5.91;100.00
24746;BME280;12845;52.042;6.838;2023-02-13T07:54:09;-18187.97;;;5.94;100.00
24746;BME280;12845;52.042;6.838;2023-02-13T07:56:35;-18187.97;;;5.94;100.00
24746;BME280;12845;52.042;6.838;2023-02-13T07:59:00;-18188.78;;;5.97;100.00
24746;BME280;12845;52.042;6.838;2023-02-13T08:01:25;-18189.63;;;6.00;100.00
24746;BME280;12845;52.042;6.838;2023-02-13T08:03:50;-18190.44;;;6.03;100.00
24746;BME280;12845;52.042;6.838;2023-02-13T08:06:16;-18191.28;;;6.06;100.00
24746;BME280;12845;52.042;6.838;2023-02-13T08:08:43;-18192.09;;;6.09;100.00
24746;BME280;12845;52.042;6.838;2023-02-13T08:11:15;-18192.94;;;6.13;100.00
24746;BME280;12845;52.042;6.838;2023-02-13T08:14:02;-18193.34;;;6.14;100.00
24746;BME280;12845;52.042;6.838;2023-02-13T08:16:27;-18194.16;;;6.17;100.00
24746;BME280;12845;52.042;6.838;2023-02-13T08:18:52;-18195.13;;;6.21;100.00
24746;BME280;12845;52.042;6.838;2023-02-13T08:21:18;-18196.25;;;6.25;100.00
24746;BME280;12845;52.042;6.838;2023-02-13T08:23:43;-18197.19;;;6.28;100.00
24746;BME280;12845;52.042;6.838;2023-02-13T08:26:08;-18198.31;;;6.32;100.00
24746;BME280;12845;52.042;6.838;2023-02-13T08:28:35;-18198.72;;;6.34;100.00
24746;BME280;12845;52.042;6.838;2023-02-13T08:31:00;-18199.53;;;6.37;100.00
24746;BME280;12845;52.042;6.838;2023-02-13T08:33:25;-18199.81;;;6.38;100.00
24746;BME280;12845;52.042;6.838;2023-02-13T08:35:51;-18200.94;;;6.42;100.00
24746;BME280;12845;52.042;6.838;2023-02-13T08:38:16;-18201.88;;;6.46;100.00
24746;BME280;12845;52.042;6.838;2023-02-13T08:40:41;-18202.59;;;6.48;100.00
24746;BME280;12845;52.042;6.838;2023-02-13T08:43:06;-18202.72;;;6.49;100.00
24746;BME280;12845;52.042;6.838;2023-02-13T08:45:32;-18203.28;;;6.51;100.00
24746;BME280;12845;52.042;6.838;2023-02-13T08:47:58;-18203.69;;;6.52;100.00
24746;BME280;12845;52.042;6.838;2023-02-13T08:50:24;-18204.50;;;6.55;100.00
24746;BME280;12845;52.042;6.838;2023-02-13T08:52:49;-18204.22;;;6.54;100.00
24746;BME280;12845;52.042;6.838;2023-02-13T08:55:15;-18204.22;;;6.54;100.00
24746;BME280;12845;52.042;6.838;2023-02-13T08:57:40;-18204.50;;;6.55;100.00
24746;BME280;12845;52.042;6.838;2023-02-13T09:00:05;-18205.34;;;6.59;100.00
24746;BME280;12845;52.042;6.838;2023-02-13T09:02:30;-18206.03;;;6.61;100.00
24746;BME280;12845;52.042;6.838;2023-02-13T09:04:56;-18206.03;;;6.61;100.00
24746;BME280;12845;52.042;6.838;2023-02-13T09:07:21;-18206.16;;;6.62;100.00
24746;BME280;12845;52.042;6.838;2023-02-13T09:09:46;-18206.44;;;6.63;100.00
24746;BME280;12845;52.042;6.838;2023-02-13T09:12:11;-18207.28;;;6.66;100.00
24746;BME280;12845;52.042;6.838;2023-02-13T09:14:37;-18207.97;;;6.68;100.00
24746;BME280;12845;52.042;6.838;2023-02-13T09:17:03;-18207.81;;;6.68;100.00
24746;BME280;12845;52.042;6.838;2023-02-13T09:19:28;-18208.91;;;6.72;100.00
24746;BME280;12845;52.042;6.838;2023-02-13T09:21:53;-18209.19;;;6.73;100.00
24746;BME280;12845;52.042;6.838;2023-02-13T09:24:18;-18210.31;;;6.77;100.00
24746;BME280;12845;52.042;6.838;2023-02-13T09:26:44;-18211.00;;;6.80;100.00
24746;BME280;12845;52.042;6.838;2023-02-13T09:29:09;-18211.81;;;6.83;100.00
24746;BME280;12845;52.042;6.838;2023-02-13T09:31:34;-18212.09;;;6.84;100.00
24746;BME280;12845;52.042;6.838;2023-02-13T09:33:59;-18212.78;;;6.86;100.00
24746;BME280;12845;52.042;6.838;2023-02-13T09:36:25;-18213.88;;;6.90;100.00
24746;BME280;12845;52.042;6.838;2023-02-13T09:38:51;-18213.88;;;6.90;100.00
24746;BME280;12845;52.042;6.838;2023-02-13T09:41:27;-18214.44;;;6.92;100.00
24746;BME280;12845;52.042;6.838;2023-02-13T09:43:57;-18215.13;;;6.95;100.00
24746;BME280;12845;52.042;6.838;2023-02-13T09:46:34;-18215.81;;;6.97;100.00
24746;BME280;12845;52.042;6.838;2023-02-13T09:49:04;-18217.59;;;7.04;100.00
24746;BME280;12845;52.042;6.838;2023-02-13T09:51:31;-18219.25;;;7.10;100.00
24746;BME280;12845;52.042;6.838;2023-02-13T09:54:00;-18220.09;;;7.13;100.00
24746;BME280;12845;52.042;6.838;2023-02-13T09:56:59;-18221.59;;;7.19;100.00
24746;BME280;12845;52.042;6.838;2023-02-13T09:59:28;-18222.44;;;7.22;100.00
24746;BME280;12845;52.042;6.838;2023-02-13T10:01:56;-18223.25;;;7.25;100.00
24746;BME280;12845;52.042;6.838;2023-02-13T10:04:28;-18224.63;;;7.30;100.00
24746;BME280;12845;52.042;6.838;2023-02-13T10:09:43;-18227.38;;;7.40;100.00
24746;BME280;12845;52.042;6.838;2023-02-13T10:12:18;-18228.75;;;7.45;100.00
24746;BME280;12845;52.042;6.838;2023-02-13T10:14:49;-18229.88;;;7.50;100.00
24746;BME280;12845;52.042;6.838;2023-02-13T10:20:32;-18231.66;;;7.56;100.00
24746;BME280;12845;52.042;6.838;2023-02-13T10:23:03;-18232.91;;;7.61;100.00
24746;BME280;12845;52.042;6.838;2023-02-13T10:26:33;-18234.41;;;7.66;100.00
24746;BME280;12845;52.042;6.838;2023-02-13T10:28:32;-18234.41;;;7.66;100.00
24746;BME280;12845;52.042;6.838;2023-02-13T10:31:17;-18234.97;;;7.68;100.00
24746;BME280;12845;52.042;6.838;2023-02-13T10:33:49;-18236.34;;;7.74;100.00
24746;BME280;12845;52.042;6.838;2023-02-13T10:38:42;-18238.97;;;7.83;100.00
24746;BME280;12845;52.042;6.838;2023-02-13T10:43:37;-18242.81;;;7.98;100.00
24746;BME280;12845;52.042;6.838;2023-02-13T10:46:13;-18241.44;;;7.93;100.00
24746;BME280;12845;52.042;6.838;2023-02-13T10:54:03;-18240.34;;;7.88;100.00
24746;BME280;12845;52.042;6.838;2023-02-13T10:56:38;-18243.09;;;7.99;100.00
24746;BME280;12845;52.042;6.838;2023-02-13T11:01:46;-18243.91;;;8.02;100.00
24746;BME280;12845;52.042;6.838;2023-02-13T11:04:13;-18245.03;;;8.06;100.00
24746;BME280;12845;52.042;6.838;2023-02-13T11:06:42;-18247.09;;;8.13;100.00
24746;BME280;12845;52.042;6.838;2023-02-13T11:09:08;-18249.28;;;8.22;100.00
24746;BME280;12845;52.042;6.838;2023-02-13T11:11:35;-18250.53;;;8.26;100.00
24746;BME280;12845;52.042;6.838;2023-02-13T11:14:08;-18251.34;;;8.29;100.00
24746;BME280;12845;52.042;6.838;2023-02-13T11:16:37;-18252.03;;;8.32;100.00
24746;BME280;12845;52.042;6.838;2023-02-13T11:19:03;-18253.84;;;8.39;100.00
24746;BME280;12845;52.042;6.838;2023-02-13T11:21:33;-18255.06;;;8.43;100.00
24746;BME280;12845;52.042;6.838;2023-02-13T11:23:59;-18258.25;;;8.55;100.00
24746;BME280;12845;52.042;6.838;2023-02-13T11:26:37;-18261.28;;;8.66;100.00
24746;BME280;12845;52.042;6.838;2023-02-13T11:29:05;-18263.75;;;8.75;100.00
24746;BME280;12845;52.042;6.838;2023-02-13T11:31:39;-18265.41;;;8.81;100.00
24746;BME280;12845;52.042;6.838;2023-02-13T11:34:24;-18269.81;;;8.98;100.00
24746;BME280;12845;52.042;6.838;2023-02-13T11:36:54;-18272.28;;;9.07;100.00
24746;BME280;12845;52.042;6.838;2023-02-13T11:39:31;-18274.06;;;9.14;100.00
24746;BME280;12845;52.042;6.838;2023-02-13T11:41:56;-18274.06;;;9.14;100.00
24746;BME280;12845;52.042;6.838;2023-02-13T11:44:25;-18273.94;;;9.13;100.00
24746;BME280;12845;52.042;6.838;2023-02-13T11:46:52;-18273.22;;;9.11;100.00
24746;BME280;12845;52.042;6.838;2023-02-13T11:51:44;-18275.56;;;9.19;100.00
24746;BME280;12845;52.042;6.838;2023-02-13T11:54:21;-18275.72;;;9.20;100.00
24746;BME280;12845;52.042;6.838;2023-02-13T11:56:47;-18276.66;;;9.23;100.00
24746;BME280;12845;52.042;6.838;2023-02-13T11:59:13;-18279.44;;;9.34;100.00
24746;BME280;12845;52.042;6.838;2023-02-13T12:01:38;-18281.34;;;9.41;100.00
24746;BME280;12845;52.042;6.838;2023-02-13T12:06:32;-18285.34;;;9.56;100.00
24746;BME280;12845;52.042;6.838;2023-02-13T12:09:04;-18288.09;;;9.66;100.00
24746;BME280;12845;52.042;6.838;2023-02-13T12:11:37;-18290.69;;;9.76;100.00
24746;BME280;12845;52.042;6.838;2023-02-13T12:14:03;-18292.22;;;9.81;100.00
24746;BME280;12845;52.042;6.838;2023-02-13T12:16:30;-18297.84;;;10.02;100.00
24746;BME280;12845;52.042;6.838;2023-02-13T12:18:58;-18302.09;;;10.18;100.00
24746;BME280;12845;52.042;6.838;2023-02-13T12:26:26;-18299.63;;;10.09;100.00
24746;BME280;12845;52.042;6.838;2023-02-13T12:31:41;-18302.25;;;10.19;100.00
24746;BME280;12845;52.042;6.838;2023-02-13T12:37:01;-18308.03;;;10.40;100.00
24746;BME280;12845;52.042;6.838;2023-02-13T12:39:32;-18310.63;;;10.50;100.00
24746;BME280;12845;52.042;6.838;2023-02-13T12:42:02;-18312.00;;;10.55;100.00
24746;BME280;12845;52.042;6.838;2023-02-13T12:47:06;-18314.34;;;10.64;100.00
24746;BME280;12845;52.042;6.838;2023-02-13T12:52:27;-18315.59;;;10.68;100.00
24746;BME280;12845;52.042;6.838;2023-02-13T13:05:27;-18325.47;;;11.05;100.00
24746;BME280;12845;52.042;6.838;2023-02-13T13:07:59;-18330.41;;;11.23;100.00
24746;BME280;12845;52.042;6.838;2023-02-13T13:10:34;-18332.88;;;11.33;100.00
24746;BME280;12845;52.042;6.838;2023-02-13T13:15:34;-18331.38;;;11.27;100.00
24746;BME280;12845;52.042;6.838;2023-02-13T13:28:39;-18342.63;;;11.69;100.00
24746;BME280;12845;52.042;6.838;2023-02-13T13:31:05;-18343.59;;;11.72;100.00
24746;BME280;12845;52.042;6.838;2023-02-13T13:33:32;-18346.06;;;11.82;100.00
24746;BME280;12845;52.042;6.838;2023-02-13T13:36:04;-18348.13;;;11.89;100.00
24746;BME280;12845;52.042;6.838;2023-02-13T13:38:45;-18350.72;;;11.99;100.00
24746;BME280;12845;52.042;6.838;2023-02-13T13:41:25;-18353.88;;;12.11;100.00
24746;BME280;12845;52.042;6.838;2023-02-13T13:46:29;-18356.78;;;12.22;100.00
24746;BME280;12845;52.042;6.838;2023-02-13T13:49:04;-18358.28;;;12.27;100.00
24746;BME280;12845;52.042;6.838;2023-02-13T13:51:30;-18357.72;;;12.25;100.00
24746;BME280;12845;52.042;6.838;2023-02-13T13:56:24;-18361.03;;;12.37;100.00
24746;BME280;12845;52.042;6.838;2023-02-13T13:58:49;-18362.53;;;12.43;100.00
24746;BME280;12845;52.042;6.838;2023-02-13T14:06:13;-18362.94;;;12.45;100.00
24746;BME280;12845;52.042;6.838;2023-02-13T14:11:05;-18365.81;;;12.55;100.00
24746;BME280;12845;52.042;6.838;2023-02-13T14:13:32;-18369.38;;;12.69;100.00
24746;BME280;12845;52.042;6.838;2023-02-13T14:15:57;-18370.06;;;12.71;100.00
24746;BME280;12845;52.042;6.838;2023-02-13T14:18:24;-18370.06;;;12.71;100.00
24746;BME280;12845;52.042;6.838;2023-02-13T14:21:00;-18369.94;;;12.71;100.00
24746;BME280;12845;52.042;6.838;2023-02-13T14:23:32;-18371.31;;;12.76;100.00
24746;BME280;12845;52.042;6.838;2023-02-13T14:28:53;-18373.63;;;12.84;100.00
24746;BME280;12845;52.042;6.838;2023-02-13T14:31:22;-18372.41;;;12.80;100.00
24746;BME280;12845;52.042;6.838;2023-02-13T14:36:20;-18371.44;;;12.76;100.00
24746;BME280;12845;52.042;6.838;2023-02-13T14:38:56;-18371.72;;;12.77;100.00
24746;BME280;12845;52.042;6.838;2023-02-13T14:44:15;-18370.91;;;12.74;100.00
24746;BME280;12845;52.042;6.838;2023-02-13T14:46:42;-18373.91;;;12.85;100.00
24746;BME280;12845;52.042;6.838;2023-02-13T14:49:23;-18374.47;;;12.87;100.00
24746;BME280;12845;52.042;6.838;2023-02-13T14:51:54;-18375.84;;;12.93;100.00
24746;BME280;12845;52.042;6.838;2023-02-13T14:54:23;-18376.38;;;12.95;100.00
24746;BME280;12845;52.042;6.838;2023-02-13T14:56:50;-18374.47;;;12.87;100.00
24746;BME280;12845;52.042;6.838;2023-02-13T14:59:23;-18375.84;;;12.93;100.00
24746;BME280;12845;52.042;6.838;2023-02-13T15:01:58;-18375.69;;;12.92;100.00